Accueil
METAR-TAF:

METAR-TAF

Aéroports :

Air Force Base Waterkloof

Waterkloof, Afrique du Sud

latitude: 25-50S, longitude: 028-13E, altitude: 1498 m

Observation

Le bulletin a été fait il y a 1 heure et 2 minutes, à 12:00 UTC
Vent 3 kt de ouest
Température 20°C
Humidité 26%
Pression 1028 hPa

METAR: FAWK 141200Z AUTO 27003KT //// // ////// 20/M00 Q1028

Heure: 15:02 (13:02 UTC)

Prévision

Le bulletin a été fait il y a 4 heures et 2 minutes, à 09:00 UTC
Prévision valable du 14 à 10 UTC au 14 à 18 UTC
Vent 3 kt de direction variable
Visibilité 10 km ou plus
pas de nuages en-dessous de 1500 mètres et pas de cumulonimbus.

TAF: FAWK 140900Z 1410/1418 VRB03KT CAVOK TX21/1413Z TN11/1418Z

Observations et prévisions météorologiques de plus de 4000 aéroports (messages METAR et TAF).

Les stations disponibles sont représentées par des disques jaunes et rouges sur la carte.

Passer la souris dessus pour voir le nom de la station.

Cliquer dessus pour voir les observations et prévisions météorologiques.

Pour changer de carte: cliquez sur les boutons verts avec une croix noire pour zoomer, sur le bouton vert avec un tiret pour effectuer un zoom arrière, ou sur les flèches vertes pour les cartes adjacentes.


METAR-TAF: